sensor_id;sensor_type;location;lat;lon;timestamp;pressure;altitude;pressure_sealevel;temperature;humidity
77027;BME280;65956;52.986;17.490;2023-04-01T00:00:20;98327.86;;;9.15;87.91
77027;BME280;65956;52.986;17.490;2023-04-01T00:03:07;98326.39;;;9.13;88.05
77027;BME280;65956;52.986;17.490;2023-04-01T00:05:33;98326.06;;;9.13;88.08
77027;BME280;65956;52.986;17.490;2023-04-01T00:07:59;98322.04;;;9.10;88.11
77027;BME280;65956;52.986;17.490;2023-04-01T00:10:26;98324.67;;;9.08;88.20
77027;BME280;65956;52.986;17.490;2023-04-01T00:12:52;98324.05;;;9.06;88.20
77027;BME280;65956;52.986;17.490;2023-04-01T00:15:19;98320.88;;;9.06;88.45
77027;BME280;65956;52.986;17.490;2023-04-01T00:17:45;98321.30;;;9.04;88.50
77027;BME280;65956;52.986;17.490;2023-04-01T00:20:11;98318.06;;;9.01;88.51
77027;BME280;65956;52.986;17.490;2023-04-01T00:22:38;98321.55;;;9.01;88.50
77027;BME280;65956;52.986;17.490;2023-04-01T00:25:04;98314.52;;;9.00;88.65
77027;BME280;65956;52.986;17.490;2023-04-01T00:27:31;98318.34;;;8.99;88.89
77027;BME280;65956;52.986;17.490;2023-04-01T00:29:57;98318.50;;;8.98;88.98
77027;BME280;65956;52.986;17.490;2023-04-01T00:32:23;98312.06;;;8.99;88.90
77027;BME280;65956;52.986;17.490;2023-04-01T00:34:52;98318.73;;;8.98;89.00
77027;BME280;65956;52.986;17.490;2023-04-01T00:37:19;98319.36;;;8.98;89.06
77027;BME280;65956;52.986;17.490;2023-04-01T00:39:47;98315.25;;;8.99;89.04
77027;BME280;65956;52.986;17.490;2023-04-01T00:42:13;98318.55;;;9.01;88.98
77027;BME280;65956;52.986;17.490;2023-04-01T00:44:40;98317.66;;;9.01;89.01
77027;BME280;65956;52.986;17.490;2023-04-01T00:47:06;98320.92;;;9.02;88.79
77027;BME280;65956;52.986;17.490;2023-04-01T00:49:35;98318.38;;;9.04;88.79
77027;BME280;65956;52.986;17.490;2023-04-01T00:52:04;98316.95;;;9.03;88.82
77027;BME280;65956;52.986;17.490;2023-04-01T00:54:32;98314.73;;;9.01;88.93
77027;BME280;65956;52.986;17.490;2023-04-01T00:57:00;98315.92;;;9.01;88.86
77027;BME280;65956;52.986;17.490;2023-04-01T00:59:40;98316.02;;;9.00;88.76
77027;BME280;65956;52.986;17.490;2023-04-01T01:02:10;98312.05;;;9.00;88.95
77027;BME280;65956;52.986;17.490;2023-04-01T01:04:37;98309.84;;;8.97;89.03
77027;BME280;65956;52.986;17.490;2023-04-01T01:12:47;98309.23;;;8.96;88.87
77027;BME280;65956;52.986;17.490;2023-04-01T01:15:28;98307.34;;;8.95;88.95
77027;BME280;65956;52.986;17.490;2023-04-01T01:32:11;98313.44;;;8.95;88.94
77027;BME280;65956;52.986;17.490;2023-04-01T01:34:48;98311.70;;;8.94;88.92
77027;BME280;65956;52.986;17.490;2023-04-01T01:37:20;98314.65;;;8.93;89.12
77027;BME280;65956;52.986;17.490;2023-04-01T01:39:52;98314.81;;;8.92;89.06
77027;BME280;65956;52.986;17.490;2023-04-01T01:42:22;98310.39;;;8.91;89.09
77027;BME280;65956;52.986;17.490;2023-04-01T01:44:52;98311.83;;;8.90;89.24
77027;BME280;65956;52.986;17.490;2023-04-01T01:47:20;98312.63;;;8.88;89.25
77027;BME280;65956;52.986;17.490;2023-04-01T01:49:48;98310.04;;;8.87;89.33
77027;BME280;65956;52.986;17.490;2023-04-01T01:52:17;98307.50;;;8.86;89.33
77027;BME280;65956;52.986;17.490;2023-04-01T01:54:52;98309.16;;;8.86;89.43
77027;BME280;65956;52.986;17.490;2023-04-01T01:57:25;98307.02;;;8.85;89.51
77027;BME280;65956;52.986;17.490;2023-04-01T01:59:58;98312.52;;;8.84;89.54
77027;BME280;65956;52.986;17.490;2023-04-01T02:02:27;98310.84;;;8.84;89.44
77027;BME280;65956;52.986;17.490;2023-04-01T02:04:57;98310.44;;;8.84;89.52
77027;BME280;65956;52.986;17.490;2023-04-01T02:07:27;98309.89;;;8.83;89.46
77027;BME280;65956;52.986;17.490;2023-04-01T02:09:55;98313.25;;;8.82;89.49
77027;BME280;65956;52.986;17.490;2023-04-01T02:12:22;98310.07;;;8.80;89.58
77027;BME280;65956;52.986;17.490;2023-04-01T02:14:57;98312.06;;;8.80;89.40
77027;BME280;65956;52.986;17.490;2023-04-01T02:17:27;98312.54;;;8.82;89.49
77027;BME280;65956;52.986;17.490;2023-04-01T02:20:02;98316.10;;;8.83;89.43
77027;BME280;65956;52.986;17.490;2023-04-01T02:22:36;98312.98;;;8.83;89.33
77027;BME280;65956;52.986;17.490;2023-04-01T02:25:07;98312.66;;;8.84;89.28
77027;BME280;65956;52.986;17.490;2023-04-01T02:27:34;98314.40;;;8.86;89.18
77027;BME280;65956;52.986;17.490;2023-04-01T02:30:00;98316.04;;;8.88;89.21
77027;BME280;65956;52.986;17.490;2023-04-01T02:32:28;98314.83;;;8.91;89.20
77027;BME280;65956;52.986;17.490;2023-04-01T02:34:56;98317.73;;;8.94;89.12
77027;BME280;65956;52.986;17.490;2023-04-01T02:37:22;98315.55;;;8.92;89.26
77027;BME280;65956;52.986;17.490;2023-04-01T02:39:48;98318.23;;;8.92;89.13
77027;BME280;65956;52.986;17.490;2023-04-01T02:42:14;98319.73;;;8.94;89.11
77027;BME280;65956;52.986;17.490;2023-04-01T02:44:41;98318.69;;;8.94;89.11
77027;BME280;65956;52.986;17.490;2023-04-01T02:47:07;98320.03;;;8.96;89.13
77027;BME280;65956;52.986;17.490;2023-04-01T02:49:33;98324.85;;;8.97;89.12
77027;BME280;65956;52.986;17.490;2023-04-01T02:51:59;98326.98;;;8.98;89.10
77027;BME280;65956;52.986;17.490;2023-04-01T02:54:25;98329.20;;;8.98;89.11
77027;BME280;65956;52.986;17.490;2023-04-01T02:56:52;98326.77;;;8.96;89.08
77027;BME280;65956;52.986;17.490;2023-04-01T02:59:18;98327.58;;;8.94;89.17
77027;BME280;65956;52.986;17.490;2023-04-01T03:01:44;98329.11;;;8.91;89.26
77027;BME280;65956;52.986;17.490;2023-04-01T03:04:10;98330.80;;;8.89;89.41
77027;BME280;65956;52.986;17.490;2023-04-01T03:06:36;98333.61;;;8.87;89.40
77027;BME280;65956;52.986;17.490;2023-04-01T03:09:02;98330.36;;;8.86;89.47
77027;BME280;65956;52.986;17.490;2023-04-01T03:11:29;98332.98;;;8.86;89.45
77027;BME280;65956;52.986;17.490;2023-04-01T03:13:55;98339.48;;;8.87;89.44
77027;BME280;65956;52.986;17.490;2023-04-01T03:16:22;98335.89;;;8.87;89.46
77027;BME280;65956;52.986;17.490;2023-04-01T03:18:49;98338.02;;;8.89;89.48
77027;BME280;65956;52.986;17.490;2023-04-01T03:21:20;98342.55;;;8.88;89.47
77027;BME280;65956;52.986;17.490;2023-04-01T03:23:46;98339.92;;;8.89;89.59
77027;BME280;65956;52.986;17.490;2023-04-01T03:26:13;98344.40;;;8.85;89.75
77027;BME280;65956;52.986;17.490;2023-04-01T03:28:39;98343.40;;;8.80;89.96
77027;BME280;65956;52.986;17.490;2023-04-01T03:31:05;98340.51;;;8.75;90.07
77027;BME280;65956;52.986;17.490;2023-04-01T03:33:35;98340.73;;;8.70;90.48
77027;BME280;65956;52.986;17.490;2023-04-01T03:36:01;98342.48;;;8.66;90.62
77027;BME280;65956;52.986;17.490;2023-04-01T03:38:29;98346.32;;;8.61;90.73
77027;BME280;65956;52.986;17.490;2023-04-01T03:40:55;98347.55;;;8.56;90.96
77027;BME280;65956;52.986;17.490;2023-04-01T03:43:21;98348.83;;;8.53;91.11
77027;BME280;65956;52.986;17.490;2023-04-01T03:45:50;98350.14;;;8.48;91.27
77027;BME280;65956;52.986;17.490;2023-04-01T03:48:17;98348.75;;;8.43;91.49
77027;BME280;65956;52.986;17.490;2023-04-01T03:50:44;98354.63;;;8.39;91.53
77027;BME280;65956;52.986;17.490;2023-04-01T03:53:10;98355.29;;;8.36;91.65
77027;BME280;65956;52.986;17.490;2023-04-01T03:55:37;98355.39;;;8.31;91.73
77027;BME280;65956;52.986;17.490;2023-04-01T03:58:05;98359.02;;;8.28;91.85
77027;BME280;65956;52.986;17.490;2023-04-01T04:00:32;98361.66;;;8.25;91.81
77027;BME280;65956;52.986;17.490;2023-04-01T04:02:59;98367.79;;;8.22;91.88
77027;BME280;65956;52.986;17.490;2023-04-01T04:05:29;98371.59;;;8.19;91.94
77027;BME280;65956;52.986;17.490;2023-04-01T04:07:55;98370.34;;;8.17;91.91
77027;BME280;65956;52.986;17.490;2023-04-01T04:10:21;98378.84;;;8.16;91.93
77027;BME280;65956;52.986;17.490;2023-04-01T04:12:49;98380.89;;;8.15;91.88
77027;BME280;65956;52.986;17.490;2023-04-01T04:15:16;98383.11;;;8.14;91.90
77027;BME280;65956;52.986;17.490;2023-04-01T04:17:42;98385.96;;;8.16;91.71
77027;BME280;65956;52.986;17.490;2023-04-01T04:20:08;98392.70;;;8.17;91.71
77027;BME280;65956;52.986;17.490;2023-04-01T04:22:34;98393.02;;;8.16;91.54
77027;BME280;65956;52.986;17.490;2023-04-01T04:25:02;98393.83;;;8.13;91.60
77027;BME280;65956;52.986;17.490;2023-04-01T04:27:29;98397.32;;;8.08;91.75
77027;BME280;65956;52.986;17.490;2023-04-01T04:30:06;98396.22;;;8.07;91.65
77027;BME280;65956;52.986;17.490;2023-04-01T04:32:33;98396.21;;;8.06;91.65
77027;BME280;65956;52.986;17.490;2023-04-01T04:34:59;98399.63;;;8.05;91.66
77027;BME280;65956;52.986;17.490;2023-04-01T04:37:25;98404.86;;;8.06;91.57
77027;BME280;65956;52.986;17.490;2023-04-01T04:39:52;98410.89;;;8.05;91.52
77027;BME280;65956;52.986;17.490;2023-04-01T04:42:18;98409.08;;;8.03;91.76
77027;BME280;65956;52.986;17.490;2023-04-01T04:44:44;98409.48;;;7.98;91.88
77027;BME280;65956;52.986;17.490;2023-04-01T04:47:10;98409.17;;;7.95;91.97
77027;BME280;65956;52.986;17.490;2023-04-01T04:49:36;98409.98;;;7.92;92.02
77027;BME280;65956;52.986;17.490;2023-04-01T04:52:06;98416.80;;;7.92;92.02
77027;BME280;65956;52.986;17.490;2023-04-01T04:54:32;98414.91;;;7.91;91.99
77027;BME280;65956;52.986;17.490;2023-04-01T04:56:59;98423.15;;;7.92;91.96
77027;BME280;65956;52.986;17.490;2023-04-01T04:59:27;98424.40;;;7.91;91.92
77027;BME280;65956;52.986;17.490;2023-04-01T05:02:01;98421.55;;;7.90;91.93
77027;BME280;65956;52.986;17.490;2023-04-01T05:04:27;98426.31;;;7.89;92.11
77027;BME280;65956;52.986;17.490;2023-04-01T05:06:53;98428.46;;;7.85;92.32
77027;BME280;65956;52.986;17.490;2023-04-01T05:09:20;98432.66;;;7.82;92.40
77027;BME280;65956;52.986;17.490;2023-04-01T05:11:46;98431.65;;;7.76;92.59
77027;BME280;65956;52.986;17.490;2023-04-01T05:14:14;98432.30;;;7.71;92.52
77027;BME280;65956;52.986;17.490;2023-04-01T05:16:41;98438.55;;;7.72;92.42
77027;BME280;65956;52.986;17.490;2023-04-01T05:19:07;98443.23;;;7.69;92.47
77027;BME280;65956;52.986;17.490;2023-04-01T05:21:33;98451.23;;;7.66;92.39
77027;BME280;65956;52.986;17.490;2023-04-01T05:24:00;98449.81;;;7.62;92.45
77027;BME280;65956;52.986;17.490;2023-04-01T05:26:26;98457.19;;;7.60;92.47
77027;BME280;65956;52.986;17.490;2023-04-01T05:28:52;98459.09;;;7.56;92.47
77027;BME280;65956;52.986;17.490;2023-04-01T05:31:20;98464.39;;;7.53;92.54
77027;BME280;65956;52.986;17.490;2023-04-01T05:33:47;98464.80;;;7.52;92.48
77027;BME280;65956;52.986;17.490;2023-04-01T05:36:15;98463.36;;;7.50;92.49
77027;BME280;65956;52.986;17.490;2023-04-01T05:38:42;98461.95;;;7.50;92.34
77027;BME280;65956;52.986;17.490;2023-04-01T05:41:11;98467.40;;;7.53;92.37
77027;BME280;65956;52.986;17.490;2023-04-01T05:43:42;98466.76;;;7.54;92.38
77027;BME280;65956;52.986;17.490;2023-04-01T05:46:27;98471.05;;;7.53;92.32
77027;BME280;65956;52.986;17.490;2023-04-01T05:49:16;98469.39;;;7.44;92.34
77027;BME280;65956;52.986;17.490;2023-04-01T05:51:42;98472.41;;;7.44;92.30
77027;BME280;65956;52.986;17.490;2023-04-01T05:54:09;98476.52;;;7.40;92.31
77027;BME280;65956;52.986;17.490;2023-04-01T05:56:35;98476.52;;;7.36;92.29
77027;BME280;65956;52.986;17.490;2023-04-01T05:59:01;98481.91;;;7.35;92.44
77027;BME280;65956;52.986;17.490;2023-04-01T06:01:27;98485.23;;;7.35;92.32
77027;BME280;65956;52.986;17.490;2023-04-01T06:03:53;98487.52;;;7.34;92.30
77027;BME280;65956;52.986;17.490;2023-04-01T06:06:30;98490.53;;;7.34;92.06
77027;BME280;65956;52.986;17.490;2023-04-01T06:17:41;98503.42;;;7.29;91.85
77027;BME280;65956;52.986;17.490;2023-04-01T06:23:41;98505.02;;;7.24;91.88
77027;BME280;65956;52.986;17.490;2023-04-01T06:26:22;98514.67;;;7.25;91.87
77027;BME280;65956;52.986;17.490;2023-04-01T06:51:30;98532.99;;;7.10;92.00
77027;BME280;65956;52.986;17.490;2023-04-01T06:54:36;98540.19;;;7.10;91.96
77027;BME280;65956;52.986;17.490;2023-04-01T06:57:41;98542.49;;;7.07;91.90
77027;BME280;65956;52.986;17.490;2023-04-01T07:00:24;98546.29;;;7.09;92.01
77027;BME280;65956;52.986;17.490;2023-04-01T07:03:05;98542.51;;;7.11;91.94
77027;BME280;65956;52.986;17.490;2023-04-01T07:05:34;98545.52;;;7.16;92.03
77027;BME280;65956;52.986;17.490;2023-04-01T07:08:05;98550.36;;;7.20;91.89
77027;BME280;65956;52.986;17.490;2023-04-01T07:13:34;98553.52;;;7.23;91.84
77027;BME280;65956;52.986;17.490;2023-04-01T07:16:27;98556.38;;;7.25;91.81
77027;BME280;65956;52.986;17.490;2023-04-01T07:19:03;98564.85;;;7.29;91.70
77027;BME280;65956;52.986;17.490;2023-04-01T07:22:00;98567.15;;;7.35;91.64
77027;BME280;65956;52.986;17.490;2023-04-01T07:24:39;98567.56;;;7.40;91.45
77027;BME280;65956;52.986;17.490;2023-04-01T07:27:10;98569.08;;;7.43;91.29
77027;BME280;65956;52.986;17.490;2023-04-01T07:29:38;98571.53;;;7.48;91.11
77027;BME280;65956;52.986;17.490;2023-04-01T07:32:27;98573.67;;;7.52;90.95
77027;BME280;65956;52.986;17.490;2023-04-01T07:40:09;98577.09;;;7.65;90.79
77027;BME280;65956;52.986;17.490;2023-04-01T07:47:59;98588.08;;;7.43;89.98
77027;BME280;65956;52.986;17.490;2023-04-01T07:50:36;98595.58;;;7.39;89.92
77027;BME280;65956;52.986;17.490;2023-04-01T07:53:28;98598.81;;;7.30;89.68
77027;BME280;65956;52.986;17.490;2023-04-01T07:56:10;98609.09;;;7.24;89.77
77027;BME280;65956;52.986;17.490;2023-04-01T08:01:41;98616.21;;;7.21;89.53
77027;BME280;65956;52.986;17.490;2023-04-01T08:04:27;98622.47;;;7.26;89.86
77027;BME280;65956;52.986;17.490;2023-04-01T08:13:48;98637.48;;;7.41;89.17
77027;BME280;65956;52.986;17.490;2023-04-01T08:16:56;98633.54;;;7.52;89.08
77027;BME280;65956;52.986;17.490;2023-04-01T08:21:58;98642.04;;;7.65;88.45
77027;BME280;65956;52.986;17.490;2023-04-01T08:24:42;98645.92;;;7.69;88.15
77027;BME280;65956;52.986;17.490;2023-04-01T08:27:18;98647.04;;;7.76;87.89
77027;BME280;65956;52.986;17.490;2023-04-01T08:30:33;98649.83;;;7.87;87.72
77027;BME280;65956;52.986;17.490;2023-04-01T08:33:11;98653.23;;;7.98;87.60
77027;BME280;65956;52.986;17.490;2023-04-01T08:35:50;98655.55;;;8.02;87.14
77027;BME280;65956;52.986;17.490;2023-04-01T08:38:31;98658.64;;;8.04;86.99
77027;BME280;65956;52.986;17.490;2023-04-01T08:41:01;98659.83;;;8.04;87.06
77027;BME280;65956;52.986;17.490;2023-04-01T08:44:11;98659.27;;;8.00;86.99
77027;BME280;65956;52.986;17.490;2023-04-01T08:52:41;98669.70;;;7.84;87.42
77027;BME280;65956;52.986;17.490;2023-04-01T08:55:31;98668.43;;;7.75;87.54
77027;BME280;65956;52.986;17.490;2023-04-01T09:00:47;98677.92;;;7.67;87.85
77027;BME280;65956;52.986;17.490;2023-04-01T09:06:28;98687.43;;;7.68;88.24
77027;BME280;65956;52.986;17.490;2023-04-01T09:35:24;98723.15;;;7.08;88.87
77027;BME280;65956;52.986;17.490;2023-04-01T09:44:46;98735.34;;;6.95;88.58
77027;BME280;65956;52.986;17.490;2023-04-01T09:50:27;98746.06;;;7.03;88.49
77027;BME280;65956;52.986;17.490;2023-04-01T09:53:17;98747.59;;;7.09;88.49
77027;BME280;65956;52.986;17.490;2023-04-01T09:56:03;98750.05;;;7.21;88.50
77027;BME280;65956;52.986;17.490;2023-04-01T10:16:27;98775.41;;;7.30;86.53
77027;BME280;65956;52.986;17.490;2023-04-01T10:33:42;98787.71;;;7.51;85.03
77027;BME280;65956;52.986;17.490;2023-04-01T10:50:53;98792.98;;;7.79;83.43
77027;BME280;65956;52.986;17.490;2023-04-01T10:59:36;98793.09;;;7.90;81.97
77027;BME280;65956;52.986;17.490;2023-04-01T11:08:39;98807.59;;;8.19;82.31
77027;BME280;65956;52.986;17.490;2023-04-01T11:22:23;98824.96;;;7.98;82.17
77027;BME280;65956;52.986;17.490;2023-04-01T11:25:07;98825.29;;;8.00;82.44
77027;BME280;65956;52.986;17.490;2023-04-01T11:31:29;98826.86;;;8.18;81.82
77027;BME280;65956;52.986;17.490;2023-04-01T11:57:05;98857.46;;;7.81;80.91
77027;BME280;65956;52.986;17.490;2023-04-01T12:30:05;98891.60;;;8.12;80.16
77027;BME280;65956;52.986;17.490;2023-04-01T12:33:10;98895.30;;;8.05;79.70
77027;BME280;65956;52.986;17.490;2023-04-01T12:38:36;98900.12;;;7.86;80.47
77027;BME280;65956;52.986;17.490;2023-04-01T12:55:48;98930.09;;;7.51;81.17
77027;BME280;65956;52.986;17.490;2023-04-01T13:03:44;98933.94;;;7.37;81.09
77027;BME280;65956;52.986;17.490;2023-04-01T13:06:42;98934.30;;;7.32;81.39
77027;BME280;65956;52.986;17.490;2023-04-01T13:20:02;98959.05;;;7.38;81.05
77027;BME280;65956;52.986;17.490;2023-04-01T13:22:51;98960.35;;;7.30;80.50
77027;BME280;65956;52.986;17.490;2023-04-01T13:25:32;98967.10;;;7.25;80.50
77027;BME280;65956;52.986;17.490;2023-04-01T13:28:20;98968.16;;;7.19;80.55
77027;BME280;65956;52.986;17.490;2023-04-01T13:39:20;98980.77;;;7.42;80.72
77027;BME280;65956;52.986;17.490;2023-04-01T13:42:24;98978.67;;;7.37;79.55
77027;BME280;65956;52.986;17.490;2023-04-01T13:45:14;98975.60;;;7.38;79.48
77027;BME280;65956;52.986;17.490;2023-04-01T13:56:16;98992.23;;;7.59;79.00
77027;BME280;65956;52.986;17.490;2023-04-01T13:59:06;98991.95;;;7.52;78.88
77027;BME280;65956;52.986;17.490;2023-04-01T14:02:02;98997.20;;;7.45;79.58
77027;BME280;65956;52.986;17.490;2023-04-01T14:07:36;99005.00;;;7.22;79.46
77027;BME280;65956;52.986;17.490;2023-04-01T14:22:25;99018.73;;;7.01;79.42
77027;BME280;65956;52.986;17.490;2023-04-01T14:42:42;99038.95;;;6.65;79.99
77027;BME280;65956;52.986;17.490;2023-04-01T14:51:28;99044.01;;;6.39;80.70
77027;BME280;65956;52.986;17.490;2023-04-01T14:54:00;99051.39;;;6.36;80.64
77027;BME280;65956;52.986;17.490;2023-04-01T14:57:01;99056.91;;;6.34;80.64
77027;BME280;65956;52.986;17.490;2023-04-01T14:59:39;99063.33;;;6.29;80.75
77027;BME280;65956;52.986;17.490;2023-04-01T15:02:45;99063.24;;;6.29;81.08
77027;BME280;65956;52.986;17.490;2023-04-01T15:05:27;99068.98;;;6.32;81.07
77027;BME280;65956;52.986;17.490;2023-04-01T15:08:20;99069.46;;;6.26;80.85
77027;BME280;65956;52.986;17.490;2023-04-01T15:11:16;99073.50;;;6.22;80.43
77027;BME280;65956;52.986;17.490;2023-04-01T15:22:25;99086.39;;;6.17;79.89
77027;BME280;65956;52.986;17.490;2023-04-01T15:31:38;99100.41;;;6.14;80.31
77027;BME280;65956;52.986;17.490;2023-04-01T15:33:58;99106.36;;;6.10;80.07
77027;BME280;65956;52.986;17.490;2023-04-01T15:39:51;99106.85;;;5.97;79.47
77027;BME280;65956;52.986;17.490;2023-04-01T15:45:12;99119.49;;;5.88;79.26
77027;BME280;65956;52.986;17.490;2023-04-01T15:47:46;99116.80;;;5.84;79.20
77027;BME280;65956;52.986;17.490;2023-04-01T15:53:25;99123.09;;;5.86;80.05
77027;BME280;65956;52.986;17.490;2023-04-01T15:55:59;99126.10;;;5.82;80.44
77027;BME280;65956;52.986;17.490;2023-04-01T16:09:35;99149.77;;;5.59;80.25
77027;BME280;65956;52.986;17.490;2023-04-01T16:12:30;99148.33;;;5.53;80.28
77027;BME280;65956;52.986;17.490;2023-04-01T16:23:39;99182.33;;;5.34;80.40
77027;BME280;65956;52.986;17.490;2023-04-01T16:28:55;99189.86;;;5.21;80.79
77027;BME280;65956;52.986;17.490;2023-04-01T16:31:26;99190.92;;;5.15;80.88
77027;BME280;65956;52.986;17.490;2023-04-01T16:34:01;99198.36;;;5.12;81.00
77027;BME280;65956;52.986;17.490;2023-04-01T16:41:48;99207.05;;;5.01;80.79
77027;BME280;65956;52.986;17.490;2023-04-01T16:44:22;99217.38;;;4.94;80.70
77027;BME280;65956;52.986;17.490;2023-04-01T16:49:29;99226.12;;;4.82;81.04
77027;BME280;65956;52.986;17.490;2023-04-01T16:54:56;99237.54;;;4.75;81.40
77027;BME280;65956;52.986;17.490;2023-04-01T17:00:27;99246.34;;;4.73;81.72
77027;BME280;65956;52.986;17.490;2023-04-01T17:05:40;99259.63;;;4.65;81.95
77027;BME280;65956;52.986;17.490;2023-04-01T17:08:36;99263.73;;;4.63;81.54
77027;BME280;65956;52.986;17.490;2023-04-01T17:11:08;99268.67;;;4.61;81.93
77027;BME280;65956;52.986;17.490;2023-04-01T17:14:09;99274.41;;;4.57;82.22
77027;BME280;65956;52.986;17.490;2023-04-01T17:17:18;99279.55;;;4.54;82.01
77027;BME280;65956;52.986;17.490;2023-04-01T17:19:54;99283.27;;;4.51;82.06
77027;BME280;65956;52.986;17.490;2023-04-01T17:31:17;99287.86;;;4.39;82.34
77027;BME280;65956;52.986;17.490;2023-04-01T17:42:22;99304.98;;;4.31;83.16
77027;BME280;65956;52.986;17.490;2023-04-01T17:47:46;99316.84;;;4.27;83.06
77027;BME280;65956;52.986;17.490;2023-04-01T18:01:22;99341.21;;;4.22;83.10
77027;BME280;65956;52.986;17.490;2023-04-01T18:09:29;99351.80;;;4.14;82.70
77027;BME280;65956;52.986;17.490;2023-04-01T18:18:19;99372.40;;;4.07;82.47
77027;BME280;65956;52.986;17.490;2023-04-01T18:24:28;99389.86;;;4.03;82.64
77027;BME280;65956;52.986;17.490;2023-04-01T18:26:32;99392.48;;;3.98;82.50
77027;BME280;65956;52.986;17.490;2023-04-01T18:29:11;99392.68;;;3.97;82.27
77027;BME280;65956;52.986;17.490;2023-04-01T18:31:48;99400.37;;;3.94;82.05
77027;BME280;65956;52.986;17.490;2023-04-01T18:34:25;99408.03;;;3.92;82.29
77027;BME280;65956;52.986;17.490;2023-04-01T18:36:58;99411.27;;;3.89;82.23
77027;BME280;65956;52.986;17.490;2023-04-01T18:39:42;99413.41;;;3.87;82.12
77027;BME280;65956;52.986;17.490;2023-04-01T18:45:27;99418.32;;;3.83;81.96
77027;BME280;65956;52.986;17.490;2023-04-01T18:53:14;99435.23;;;3.80;81.74
77027;BME280;65956;52.986;17.490;2023-04-01T18:55:52;99436.20;;;3.80;82.07
77027;BME280;65956;52.986;17.490;2023-04-01T18:58:27;99433.99;;;3.78;82.29
77027;BME280;65956;52.986;17.490;2023-04-01T19:01:19;99440.20;;;3.77;82.50
77027;BME280;65956;52.986;17.490;2023-04-01T19:12:20;99450.77;;;3.70;82.21
77027;BME280;65956;52.986;17.490;2023-04-01T19:20:44;99466.28;;;3.68;82.83
77027;BME280;65956;52.986;17.490;2023-04-01T19:26:04;99470.55;;;3.60;83.08
77027;BME280;65956;52.986;17.490;2023-04-01T19:28:51;99476.16;;;3.58;82.74
77027;BME280;65956;52.986;17.490;2023-04-01T19:31:53;99480.30;;;3.55;82.82
77027;BME280;65956;52.986;17.490;2023-04-01T19:35:03;99485.17;;;3.52;83.11
77027;BME280;65956;52.986;17.490;2023-04-01T19:37:45;99484.82;;;3.49;83.29
77027;BME280;65956;52.986;17.490;2023-04-01T19:56:59;99511.10;;;3.22;83.71
77027;BME280;65956;52.986;17.490;2023-04-01T20:04:42;99515.52;;;3.13;83.72
77027;BME280;65956;52.986;17.490;2023-04-01T20:07:23;99530.56;;;3.11;83.81
77027;BME280;65956;52.986;17.490;2023-04-01T20:10:09;99531.73;;;3.11;83.86
77027;BME280;65956;52.986;17.490;2023-04-01T20:12:47;99542.78;;;3.10;84.26
77027;BME280;65956;52.986;17.490;2023-04-01T20:15:32;99550.10;;;3.10;84.22
77027;BME280;65956;52.986;17.490;2023-04-01T20:18:05;99548.72;;;3.09;84.40
77027;BME280;65956;52.986;17.490;2023-04-01T20:20:39;99555.89;;;3.10;84.45
77027;BME280;65956;52.986;17.490;2023-04-01T20:23:40;99555.33;;;3.09;84.57
77027;BME280;65956;52.986;17.490;2023-04-01T20:26:12;99557.06;;;3.07;84.49
77027;BME280;65956;52.986;17.490;2023-04-01T20:28:58;99554.20;;;3.03;84.25
77027;BME280;65956;52.986;17.490;2023-04-01T20:31:37;99549.88;;;2.99;83.86
77027;BME280;65956;52.986;17.490;2023-04-01T20:36:57;99563.70;;;2.99;84.20
77027;BME280;65956;52.986;17.490;2023-04-01T20:48:25;99575.76;;;2.91;83.63
77027;BME280;65956;52.986;17.490;2023-04-01T20:51:10;99584.41;;;2.91;83.24
77027;BME280;65956;52.986;17.490;2023-04-01T20:56:43;99585.75;;;2.91;82.73
77027;BME280;65956;52.986;17.490;2023-04-01T21:07:45;99594.73;;;2.87;83.27
77027;BME280;65956;52.986;17.490;2023-04-01T21:10:35;99599.03;;;2.85;83.34
77027;BME280;65956;52.986;17.490;2023-04-01T21:16:02;99604.59;;;2.86;83.30
77027;BME280;65956;52.986;17.490;2023-04-01T21:18:54;99606.23;;;2.84;82.96
77027;BME280;65956;52.986;17.490;2023-04-01T21:35:27;99622.90;;;2.72;82.40
77027;BME280;65956;52.986;17.490;2023-04-01T21:46:26;99633.23;;;2.69;82.75
77027;BME280;65956;52.986;17.490;2023-04-01T22:09:10;99649.17;;;2.61;83.15
77027;BME280;65956;52.986;17.490;2023-04-01T22:17:26;99651.20;;;2.58;83.37
77027;BME280;65956;52.986;17.490;2023-04-01T22:19:59;99658.67;;;2.60;83.42
77027;BME280;65956;52.986;17.490;2023-04-01T22:22:38;99660.95;;;2.60;83.47
77027;BME280;65956;52.986;17.490;2023-04-01T22:25:10;99660.73;;;2.63;83.60
77027;BME280;65956;52.986;17.490;2023-04-01T22:27:52;99662.61;;;2.65;83.48
77027;BME280;65956;52.986;17.490;2023-04-01T22:30:23;99670.09;;;2.67;83.49
77027;BME280;65956;52.986;17.490;2023-04-01T22:33:12;99671.45;;;2.68;83.16
77027;BME280;65956;52.986;17.490;2023-04-01T22:43:55;99687.46;;;2.67;83.32
77027;BME280;65956;52.986;17.490;2023-04-01T22:49:29;99691.54;;;2.69;83.06
77027;BME280;65956;52.986;17.490;2023-04-01T22:54:49;99702.31;;;2.71;83.12
77027;BME280;65956;52.986;17.490;2023-04-01T22:57:35;99697.20;;;2.71;83.23
77027;BME280;65956;52.986;17.490;2023-04-01T23:00:12;99699.14;;;2.68;83.10
77027;BME280;65956;52.986;17.490;2023-04-01T23:03:45;99710.41;;;2.67;83.09
77027;BME280;65956;52.986;17.490;2023-04-01T23:05:59;99716.14;;;2.67;83.26
77027;BME280;65956;52.986;17.490;2023-04-01T23:11:39;99720.15;;;2.65;83.26
77027;BME280;65956;52.986;17.490;2023-04-01T23:17:19;99722.83;;;2.66;83.31
